Time;durP1;ratioP1;P1;durP2;ratioP2;P2;SDS_P1;SDS_P2;PMS_P1;PMS_P2;Temp;Humidity;BMP_temperature;BMP_pressure;BME280_temperature;BME280_humidity;BME280_pressure;Samples;Min_cycle;Max_cycle;Signal;HPM_P1;HPM_P2
2021/08/31 00:00:21;;;;;;;7.13;5.85;;;14.20;99.90;;;;;;5076732;28;20032;-49
2021/08/31 00:02:47;;;;;;;6.85;5.60;;;14.50;99.90;;;;;;5095387;28;20028;-51
2021/08/31 00:05:14;;;;;;;6.28;5.25;;;14.70;99.90;;;;;;5095150;28;20024;-50
2021/08/31 00:07:41;;;;;;;7.75;5.20;;;14.90;99.90;;;;;;5095349;28;20031;-49
2021/08/31 00:10:08;;;;;;;6.75;5.40;;;15.00;99.90;;;;;;5095139;28;20028;-49
2021/08/31 00:12:34;;;;;;;6.30;5.28;;;15.10;99.90;;;;;;5059578;28;20048;-50
2021/08/31 00:14:59;;;;;;;9.10;5.97;;;15.20;99.90;;;;;;5095178;28;20081;-49
2021/08/31 00:17:25;;;;;;;12.07;6.32;;;15.20;99.90;;;;;;5095309;28;20028;-51
2021/08/31 00:19:51;;;;;;;6.50;5.88;;;15.30;99.90;;;;;;5059438;28;20086;-51
2021/08/31 00:22:17;;;;;;;6.20;5.60;;;15.30;99.90;;;;;;5043112;28;20036;-50
2021/08/31 00:24:43;;;;;;;6.22;5.55;;;15.20;99.90;;;;;;5095233;28;20112;-50
2021/08/31 00:27:09;;;;;;;6.95;6.05;;;15.10;99.90;;;;;;5095097;28;20030;-50
2021/08/31 00:29:35;;;;;;;8.85;7.85;;;15.00;99.90;;;;;;5094870;28;20123;-51
2021/08/31 00:32:04;;;;;;;17.63;15.77;;;14.80;99.90;;;;;;5094715;28;20044;-49
2021/08/31 00:34:30;;;;;;;36.83;33.03;;;14.60;99.90;;;;;;5094721;28;20047;-49
2021/08/31 00:36:56;;;;;;;39.83;35.47;;;14.50;99.90;;;;;;5094411;28;20495;-51
2021/08/31 00:39:21;;;;;;;41.33;32.53;;;14.40;99.90;;;;;;5094514;28;20475;-50
2021/08/31 00:41:48;;;;;;;37.10;32.22;;;14.50;99.90;;;;;;5053279;28;20048;-48
2021/08/31 00:44:25;;;;;;;34.17;30.70;;;14.60;99.90;;;;;;5075852;28;20028;-48
2021/08/31 00:47:09;;;;;;;36.20;32.42;;;14.60;99.90;;;;;;5094800;28;20039;-51
2021/08/31 00:49:38;;;;;;;26.83;23.52;;;14.50;99.90;;;;;;5094529;28;20028;-50
2021/08/31 00:52:04;;;;;;;26.33;23.05;;;14.30;99.90;;;;;;5093915;28;20043;-50
2021/08/31 00:54:30;;;;;;;45.35;40.72;;;14.20;99.90;;;;;;5058768;28;20387;-50
2021/08/31 00:57:04;;;;;;;49.58;44.55;;;13.90;99.90;;;;;;5094511;28;20081;-49
2021/08/31 00:59:33;;;;;;;46.33;41.45;;;13.60;99.90;;;;;;5025789;28;20036;-50
2021/08/31 01:01:59;;;;;;;45.83;41.00;;;13.70;99.90;;;;;;5094427;28;20111;-51
2021/08/31 01:04:26;;;;;;;55.08;49.45;;;13.80;99.90;;;;;;5075539;28;20064;-49
2021/08/31 01:06:53;;;;;;;51.38;46.05;;;13.80;99.90;;;;;;5094027;28;20024;-50
2021/08/31 01:09:23;;;;;;;75.03;67.32;;;14.10;99.90;;;;;;5094018;28;20020;-50
2021/08/31 01:11:53;;;;;;;65.40;58.38;;;14.30;99.90;;;;;;5093897;28;20038;-50
2021/08/31 01:14:19;;;;;;;77.15;66.75;;;14.30;99.90;;;;;;5094003;28;20028;-51
2021/08/31 01:16:49;;;;;;;83.40;74.93;;;14.40;99.90;;;;;;5093808;28;20024;-49
2021/08/31 01:19:22;;;;;;;75.18;66.95;;;14.50;99.90;;;;;;5093789;28;20480;-52
2021/08/31 01:21:48;;;;;;;90.82;81.53;;;14.50;99.90;;;;;;5075286;28;20032;-49
2021/08/31 01:24:14;;;;;;;97.80;87.32;;;14.50;99.90;;;;;;5093987;28;20032;-49
2021/08/31 01:26:41;;;;;;;114.95;103.07;;;14.60;99.90;;;;;;5093949;28;20031;-50
2021/08/31 01:29:07;;;;;;;114.05;96.25;;;14.70;99.90;;;;;;5093811;28;20066;-50
2021/08/31 01:31:33;;;;;;;162.50;144.80;;;14.70;99.90;;;;;;5093788;28;20035;-52
2021/08/31 01:33:59;;;;;;;119.90;106.57;;;14.60;99.90;;;;;;5093791;28;20032;-49
2021/08/31 01:36:26;;;;;;;86.15;76.28;;;14.10;99.90;;;;;;5075186;28;20043;-52
2021/08/31 01:38:55;;;;;;;100.07;89.20;;;13.50;99.90;;;;;;5093561;28;20169;-49
2021/08/31 01:41:22;;;;;;;69.18;59.92;;;13.40;99.90;;;;;;5093375;28;20040;-49
2021/08/31 01:43:49;;;;;;;79.25;68.03;;;13.40;99.90;;;;;;5093565;28;20028;-52
2021/08/31 01:46:14;;;;;;;77.90;68.38;;;13.40;99.90;;;;;;5058356;28;20043;-49
2021/08/31 01:48:40;;;;;;;67.25;60.10;;;13.30;99.90;;;;;;5093596;28;20028;-50
2021/08/31 01:51:07;;;;;;;48.38;43.20;;;13.40;99.90;;;;;;5093270;28;20579;-51
2021/08/31 01:53:36;;;;;;;71.47;64.00;;;13.50;99.90;;;;;;5093563;28;20032;-49
2021/08/31 01:56:03;;;;;;;75.95;67.65;;;13.80;99.90;;;;;;5093597;28;20055;-50
2021/08/31 01:58:29;;;;;;;74.63;66.55;;;13.80;99.90;;;;;;5058165;28;20032;-51
2021/08/31 02:00:54;;;;;;;74.20;65.70;;;14.00;99.90;;;;;;5093691;28;20071;-50
2021/08/31 02:03:20;;;;;;;70.65;63.28;;;14.20;99.90;;;;;;5093812;28;20070;-51
2021/08/31 02:05:47;;;;;;;70.90;63.40;;;14.30;99.90;;;;;;5097647;28;20429;-52
2021/08/31 02:08:12;;;;;;;67.80;60.38;;;14.50;99.90;;;;;;5062172;28;20032;-51
2021/08/31 02:10:39;;;;;;;69.32;62.15;;;14.60;99.90;;;;;;5097375;28;20028;-50
2021/08/31 02:13:05;;;;;;;65.70;59.05;;;14.70;99.90;;;;;;5097375;28;20074;-51
2021/08/31 02:15:30;;;;;;;65.70;58.90;;;14.70;99.90;;;;;;5097207;28;20169;-50
2021/08/31 02:17:56;;;;;;;63.55;56.83;;;14.70;99.90;;;;;;5045181;28;20516;-49
2021/08/31 02:20:22;;;;;;;65.93;59.03;;;14.70;99.90;;;;;;5097237;28;20035;-50
2021/08/31 02:22:48;;;;;;;67.57;60.60;;;14.80;99.90;;;;;;5078969;28;20028;-51
2021/08/31 02:25:14;;;;;;;65.00;58.22;;;14.90;99.90;;;;;;5097210;28;20463;-50
2021/08/31 02:27:40;;;;;;;61.20;54.75;;;14.90;99.90;;;;;;5097045;28;20027;-46
2021/08/31 02:30:06;;;;;;;57.83;51.90;;;15.00;99.90;;;;;;5097018;28;20073;-48
2021/08/31 02:32:32;;;;;;;58.50;48.63;;;15.10;99.90;;;;;;5061618;28;20044;-47
2021/08/31 02:34:58;;;;;;;48.75;43.42;;;15.10;99.90;;;;;;5096955;28;20024;-49
2021/08/31 02:37:24;;;;;;;49.95;44.83;;;15.20;99.90;;;;;;5097222;28;20024;-49
2021/08/31 02:39:50;;;;;;;34.28;30.83;;;15.20;99.90;;;;;;5097014;28;20026;-50
2021/08/31 02:42:16;;;;;;;21.75;19.45;;;15.20;99.90;;;;;;5096653;28;20074;-47
2021/08/31 02:44:42;;;;;;;17.30;15.50;;;15.20;99.90;;;;;;5096917;28;20078;-50
2021/08/31 02:47:08;;;;;;;17.92;15.48;;;15.30;99.90;;;;;;5044763;28;20064;-49
2021/08/31 02:49:33;;;;;;;19.58;16.20;;;15.30;99.90;;;;;;5096809;28;20051;-50
2021/08/31 02:51:59;;;;;;;21.65;19.05;;;15.30;99.90;;;;;;5096551;28;20032;-49
2021/08/31 02:54:26;;;;;;;16.95;14.90;;;15.30;99.90;;;;;;5096534;28;20032;-48
2021/08/31 02:56:51;;;;;;;14.98;13.48;;;15.10;99.90;;;;;;5096505;28;20065;-48
2021/08/31 02:59:17;;;;;;;13.32;11.93;;;15.20;99.90;;;;;;5044630;28;20048;-50
2021/08/31 03:04:27;;;;;;;10.98;9.88;;;15.10;99.90;;;;;;5096484;28;20033;-49
2021/08/31 03:06:53;;;;;;;14.27;11.60;;;15.10;99.90;;;;;;5096754;28;20376;-51
2021/08/31 03:09:19;;;;;;;11.50;10.30;;;15.00;99.90;;;;;;5027478;28;20032;-49
2021/08/31 03:11:44;;;;;;;14.05;10.70;;;14.90;99.90;;;;;;5033950;28;20043;-48
2021/08/31 03:14:10;;;;;;;13.30;12.02;;;15.00;99.90;;;;;;4985085;28;20135;-50
2021/08/31 03:16:36;;;;;;;13.65;12.30;;;14.90;99.90;;;;;;5032903;28;20497;-50
2021/08/31 03:19:02;;;;;;;14.50;11.75;;;15.00;99.90;;;;;;5017523;28;20068;-49
2021/08/31 03:21:29;;;;;;;14.43;12.45;;;14.90;99.90;;;;;;5033959;28;20108;-49
2021/08/31 03:23:54;;;;;;;14.93;11.93;;;15.10;99.90;;;;;;5285405;22;20045;-48
2021/08/31 03:26:20;;;;;;;13.85;12.45;;;15.10;99.90;;;;;;5076161;28;20036;-47
2021/08/31 03:28:46;;;;;;;13.93;12.38;;;15.20;99.90;;;;;;5024439;28;20384;-48
2021/08/31 03:31:12;;;;;;;13.73;12.32;;;15.30;99.90;;;;;;5075658;28;20024;-49
2021/08/31 03:33:37;;;;;;;16.77;12.02;;;15.20;99.90;;;;;;5075914;28;20037;-48
2021/08/31 03:36:05;;;;;;;13.05;11.75;;;15.10;99.90;;;;;;5075659;28;20044;-48
2021/08/31 03:38:31;;;;;;;15.57;14.00;;;14.90;99.90;;;;;;5057604;28;20116;-48
2021/08/31 03:40:57;;;;;;;18.52;15.30;;;14.90;99.90;;;;;;5040998;28;20111;-48
2021/08/31 03:43:22;;;;;;;23.75;20.17;;;14.90;99.90;;;;;;5075810;28;20025;-48
2021/08/31 03:45:48;;;;;;;19.13;15.15;;;14.80;99.90;;;;;;5075775;28;20027;-48
2021/08/31 03:48:14;;;;;;;15.10;13.48;;;14.60;99.90;;;;;;5075718;28;20028;-48
2021/08/31 03:50:39;;;;;;;15.65;14.02;;;14.60;99.90;;;;;;5075710;28;20047;-48
2021/08/31 03:53:05;;;;;;;18.13;16.23;;;14.40;99.90;;;;;;5057256;28;20040;-48
2021/08/31 03:55:31;;;;;;;24.95;20.05;;;14.30;99.90;;;;;;5075360;28;20024;-48
2021/08/31 03:57:57;;;;;;;23.17;20.50;;;14.40;99.90;;;;;;5040847;28;20048;-48
2021/08/31 04:00:23;;;;;;;20.50;18.15;;;14.40;99.90;;;;;;5024134;28;20039;-51
2021/08/31 04:02:49;;;;;;;21.48;19.17;;;14.40;99.90;;;;;;5040251;28;20032;-48
2021/08/31 04:05:15;;;;;;;20.60;17.98;;;14.50;99.90;;;;;;5040139;28;20029;-48
2021/08/31 04:07:41;;;;;;;18.65;15.85;;;14.60;99.90;;;;;;5057152;28;20036;-48
2021/08/31 04:10:07;;;;;;;17.65;15.88;;;14.60;99.90;;;;;;5075818;28;20052;-51
2021/08/31 04:12:33;;;;;;;17.20;15.32;;;14.60;99.90;;;;;;5074851;28;20467;-49
2021/08/31 04:14:59;;;;;;;15.82;12.82;;;14.70;99.90;;;;;;5074776;28;20081;-48
2021/08/31 04:17:24;;;;;;;32.28;14.75;;;14.70;99.90;;;;;;5075098;28;20017;-48
2021/08/31 04:19:50;;;;;;;17.90;13.07;;;14.70;99.90;;;;;;5074787;28;20491;-48
2021/08/31 04:22:16;;;;;;;12.77;10.75;;;14.60;99.90;;;;;;5075097;28;20017;-50
2021/08/31 04:24:41;;;;;;;11.57;10.38;;;14.50;99.90;;;;;;5074579;28;20480;-51
2021/08/31 04:27:07;;;;;;;12.80;7.43;;;14.40;99.90;;;;;;5075458;28;20032;-49
2021/08/31 04:29:33;;;;;;;11.20;8.85;;;14.40;99.90;;;;;;5074533;28;20074;-49
2021/08/31 04:31:58;;;;;;;11.07;8.60;;;14.30;99.90;;;;;;5074760;28;20039;-48
2021/08/31 04:34:24;;;;;;;9.90;6.70;;;14.30;99.90;;;;;;5074660;28;20478;-49
2021/08/31 04:36:50;;;;;;;9.48;6.72;;;14.30;99.90;;;;;;5074712;28;20027;-48
2021/08/31 04:39:15;;;;;;;10.65;7.22;;;14.40;99.90;;;;;;5074663;28;20017;-49
2021/08/31 04:41:41;;;;;;;7.93;6.82;;;14.40;99.90;;;;;;5074610;28;20108;-48
2021/08/31 04:44:07;;;;;;;8.65;6.15;;;14.50;99.90;;;;;;5023194;28;20442;-48
2021/08/31 04:46:33;;;;;;;12.52;7.88;;;14.40;99.90;;;;;;5074274;28;20116;-48
2021/08/31 04:48:58;;;;;;;8.82;7.90;;;14.50;99.90;;;;;;5074539;28;20024;-49
2021/08/31 04:51:24;;;;;;;9.02;6.70;;;14.50;99.90;;;;;;5074368;28;20040;-49
2021/08/31 04:53:50;;;;;;;9.65;7.25;;;14.40;99.90;;;;;;5073941;28;20020;-49
2021/08/31 04:56:15;;;;;;;12.00;8.07;;;14.30;99.90;;;;;;5074093;28;20036;-48
2021/08/31 04:58:41;;;;;;;12.23;9.55;;;14.40;99.90;;;;;;5074374;28;20021;-49
2021/08/31 05:01:07;;;;;;;10.32;8.73;;;14.50;99.90;;;;;;5022850;28;20361;-49
2021/08/31 05:03:36;;;;;;;10.82;8.38;;;14.50;99.90;;;;;;5073837;28;20430;-48
2021/08/31 05:06:02;;;;;;;11.60;9.32;;;14.60;99.90;;;;;;5073938;28;20028;-48
2021/08/31 05:08:27;;;;;;;19.77;8.40;;;14.60;99.90;;;;;;5074120;28;20143;-49
2021/08/31 05:10:53;;;;;;;14.23;9.32;;;14.60;99.90;;;;;;5074468;28;20021;-49
2021/08/31 05:13:19;;;;;;;14.50;8.73;;;14.60;99.90;;;;;;5073948;28;20052;-49
2021/08/31 05:15:44;;;;;;;14.23;9.60;;;14.60;99.90;;;;;;5074079;28;20021;-49
2021/08/31 05:18:10;;;;;;;10.80;8.73;;;14.60;99.90;;;;;;5074129;28;20020;-49
2021/08/31 05:20:37;;;;;;;12.80;8.38;;;14.70;99.90;;;;;;5005984;28;20032;-48
2021/08/31 05:23:03;;;;;;;10.85;8.55;;;14.70;99.90;;;;;;5073957;28;20063;-49
2021/08/31 05:25:29;;;;;;;11.52;9.45;;;14.70;99.90;;;;;;5055055;28;20438;-48
2021/08/31 05:27:55;;;;;;;12.25;8.32;;;14.80;99.90;;;;;;5022716;28;20036;-49
2021/08/31 05:30:21;;;;;;;10.45;8.88;;;14.80;99.90;;;;;;5073594;28;20490;-49
2021/08/31 05:32:47;;;;;;;14.57;9.68;;;14.90;99.90;;;;;;5038501;28;20112;-49
2021/08/31 05:35:12;;;;;;;11.82;8.70;;;14.90;99.90;;;;;;5073766;28;20020;-49
2021/08/31 05:37:39;;;;;;;11.07;8.55;;;15.00;99.90;;;;;;5073498;28;20387;-49
2021/08/31 05:40:07;;;;;;;12.63;9.45;;;15.10;99.90;;;;;;5038161;28;20494;-49
2021/08/31 05:42:32;;;;;;;12.10;9.07;;;15.20;99.90;;;;;;5073557;28;20028;-49
2021/08/31 05:44:59;;;;;;;11.18;9.18;;;15.20;99.90;;;;;;5073918;28;20025;-49
2021/08/31 05:47:24;;;;;;;13.93;8.82;;;15.20;99.90;;;;;;5073416;28;20530;-49
2021/08/31 05:49:50;;;;;;;11.27;8.68;;;15.30;99.90;;;;;;5073700;28;20056;-49
2021/08/31 05:52:16;;;;;;;12.38;9.40;;;15.30;99.90;;;;;;5073972;28;20028;-49
2021/08/31 05:54:42;;;;;;;12.95;8.90;;;15.50;99.90;;;;;;5073226;28;20468;-49
2021/08/31 05:57:11;;;;;;;11.75;8.88;;;15.60;99.90;;;;;;5073611;28;20077;-50
2021/08/31 05:59:39;;;;;;;12.60;8.73;;;15.70;99.90;;;;;;5073594;28;20020;-50
2021/08/31 06:02:09;;;;;;;11.95;8.30;;;15.80;99.90;;;;;;5073583;28;20111;-50
2021/08/31 06:04:39;;;;;;;15.38;9.00;;;15.80;99.90;;;;;;5073513;28;20020;-50
2021/08/31 06:07:09;;;;;;;28.05;10.23;;;15.90;99.90;;;;;;5073870;28;20020;-50
2021/08/31 06:09:39;;;;;;;15.02;9.65;;;16.00;99.90;;;;;;5038397;28;20083;-47
2021/08/31 06:12:06;;;;;;;11.30;9.00;;;16.00;99.90;;;;;;5073145;28;20035;-48
2021/08/31 06:14:32;;;;;;;11.32;7.93;;;16.10;99.90;;;;;;5073390;28;20372;-48
2021/08/31 06:16:58;;;;;;;11.00;8.50;;;16.10;99.90;;;;;;5073089;28;20028;-48
2021/08/31 06:19:24;;;;;;;8.77;7.55;;;16.10;99.90;;;;;;5073476;28;20023;-48
2021/08/31 06:21:50;;;;;;;15.23;8.73;;;16.20;99.90;;;;;;5073108;28;20028;-48
2021/08/31 06:24:16;;;;;;;12.18;10.38;;;16.20;99.90;;;;;;5005252;28;20087;-47
2021/08/31 06:26:41;;;;;;;9.90;8.27;;;16.40;99.90;;;;;;5073076;28;20021;-48
2021/08/31 06:29:07;;;;;;;9.95;8.10;;;16.50;99.90;;;;;;5073050;28;20031;-48
2021/08/31 06:31:33;;;;;;;9.85;8.45;;;16.60;99.90;;;;;;5072861;28;20037;-48
2021/08/31 06:33:59;;;;;;;9.82;8.75;;;16.80;99.90;;;;;;5037639;28;20033;-48
2021/08/31 06:36:24;;;;;;;9.55;8.30;;;16.90;99.90;;;;;;5073025;28;20054;-48
2021/08/31 06:38:50;;;;;;;12.10;7.93;;;17.00;99.90;;;;;;5073194;28;20051;-48
2021/08/31 06:41:16;;;;;;;8.20;7.40;;;17.10;99.90;;;;;;5021887;28;20104;-48
2021/08/31 06:43:44;;;;;;;10.10;8.93;;;17.20;99.90;;;;;;5072768;28;20463;-49
2021/08/31 06:46:10;;;;;;;9.55;7.75;;;17.40;99.90;;;;;;5073154;28;20100;-48
2021/08/31 06:48:36;;;;;;;9.00;7.75;;;17.40;99.90;;;;;;5073484;28;20435;-48
2021/08/31 06:51:02;;;;;;;10.80;9.70;;;17.50;99.90;;;;;;5074505;28;20021;-49
2021/08/31 06:53:27;;;;;;;10.10;7.68;;;17.70;99.90;;;;;;5076494;28;20521;-49
2021/08/31 06:55:53;;;;;;;8.40;7.50;;;17.70;99.90;;;;;;5076465;28;20021;-48
2021/08/31 06:58:19;;;;;;;8.30;6.82;;;17.60;99.90;;;;;;5076616;28;20024;-48
2021/08/31 07:00:45;;;;;;;11.25;7.63;;;17.70;99.90;;;;;;5025070;28;20032;-48
2021/08/31 07:03:10;;;;;;;7.45;6.75;;;17.80;99.90;;;;;;5076429;28;20513;-47
2021/08/31 07:05:36;;;;;;;9.32;6.55;;;17.80;99.90;;;;;;5041740;28;20490;-48
2021/08/31 07:08:02;;;;;;;6.63;5.10;;;18.00;99.90;;;;;;5076499;28;20125;-48
2021/08/31 07:10:28;;;;;;;7.20;6.50;;;18.10;99.90;;;;;;5076381;28;20490;-48
2021/08/31 07:12:53;;;;;;;7.00;6.30;;;18.20;99.90;;;;;;5076104;28;20494;-48
2021/08/31 07:15:19;;;;;;;5.75;5.13;;;18.20;99.90;;;;;;5023842;28;20045;-48
2021/08/31 07:17:46;;;;;;;7.18;5.00;;;18.30;99.90;;;;;;5023865;28;20037;-48
2021/08/31 07:20:12;;;;;;;6.07;4.97;;;18.40;99.90;;;;;;5075841;28;20103;-49
2021/08/31 07:22:38;;;;;;;7.20;6.50;;;18.50;99.90;;;;;;5070901;28;20024;-49
2021/08/31 07:25:05;;;;;;;7.70;5.95;;;18.60;99.90;;;;;;5057140;28;20128;-48
2021/08/31 07:27:31;;;;;;;6.53;5.35;;;18.70;99.90;;;;;;4994679;28;20034;-48
2021/08/31 07:29:57;;;;;;;7.22;6.03;;;19.00;99.90;;;;;;4994362;28;20162;-48
2021/08/31 07:32:23;;;;;;;6.50;5.10;;;19.00;99.90;;;;;;4994374;28;20035;-48
2021/08/31 07:34:49;;;;;;;12.05;6.75;;;19.20;99.90;;;;;;4994440;28;20054;-48
2021/08/31 07:37:14;;;;;;;6.40;5.75;;;19.40;99.90;;;;;;4994529;28;20110;-48
2021/08/31 07:39:41;;;;;;;6.68;5.70;;;19.50;99.90;;;;;;4994577;28;20466;-48
2021/08/31 07:42:07;;;;;;;5.97;5.22;;;19.70;99.90;;;;;;4994065;28;20065;-49
2021/08/31 07:44:32;;;;;;;6.68;5.22;;;19.80;99.90;;;;;;4998881;28;20061;-48
2021/08/31 07:46:58;;;;;;;8.55;5.00;;;19.90;99.90;;;;;;4994509;28;20042;-48
2021/08/31 07:49:25;;;;;;;5.78;4.80;;;20.30;99.90;;;;;;4996221;28;20034;-48
2021/08/31 07:51:50;;;;;;;6.30;5.20;;;20.40;99.90;;;;;;5000533;28;20049;-49
2021/08/31 07:54:16;;;;;;;5.38;4.68;;;20.60;99.90;;;;;;5000927;28;20473;-49
2021/08/31 07:56:42;;;;;;;5.35;4.82;;;20.70;99.90;;;;;;5001836;28;20033;-49
2021/08/31 07:59:08;;;;;;;5.88;4.07;;;20.90;99.90;;;;;;5036277;28;20123;-48
2021/08/31 08:01:34;;;;;;;7.93;4.78;;;21.10;99.90;;;;;;5063560;28;20065;-49
2021/08/31 08:04:00;;;;;;;6.07;4.40;;;21.20;99.90;;;;;;5025400;28;20036;-49
2021/08/31 08:06:26;;;;;;;6.57;4.60;;;21.40;99.90;;;;;;5062211;28;20020;-49
2021/08/31 08:08:52;;;;;;;6.32;4.40;;;21.30;99.90;;;;;;5005029;28;20040;-49
2021/08/31 08:11:18;;;;;;;7.80;3.90;;;21.30;99.90;;;;;;5069319;28;20043;-49
2021/08/31 08:13:44;;;;;;;4.45;3.85;;;21.40;99.90;;;;;;5039838;28;20040;-49
2021/08/31 08:16:10;;;;;;;6.70;4.38;;;21.50;99.90;;;;;;5075110;28;20020;-50
2021/08/31 08:18:35;;;;;;;6.15;4.65;;;21.50;99.90;;;;;;5075132;28;20060;-48
2021/08/31 08:21:02;;;;;;;5.60;4.75;;;21.70;99.90;;;;;;5075108;28;20377;-49
2021/08/31 08:23:28;;;;;;;5.50;4.78;;;21.90;99.90;;;;;;5075038;28;20036;-49
2021/08/31 08:25:54;;;;;;;4.55;4.05;;;22.10;99.90;;;;;;5074599;28;20048;-49
2021/08/31 08:28:22;;;;;;;7.13;5.03;;;22.50;99.90;;;;;;5074545;28;20082;-48
2021/08/31 08:30:51;;;;;;;5.43;4.85;;;22.70;99.90;;;;;;5039940;28;20047;-48
2021/08/31 08:33:19;;;;;;;4.22;3.83;;;22.80;99.90;;;;;;5074573;28;20490;-48
2021/08/31 08:35:45;;;;;;;4.28;3.70;;;22.80;99.90;;;;;;5074513;28;20016;-48
2021/08/31 08:38:10;;;;;;;4.10;3.30;;;22.90;99.90;;;;;;5074470;28;20046;-48
2021/08/31 08:40:36;;;;;;;4.35;3.80;;;22.60;99.90;;;;;;5075158;28;20399;-49
2021/08/31 08:43:04;;;;;;;7.07;3.67;;;22.60;99.90;;;;;;5074615;28;20028;-49
2021/08/31 08:45:29;;;;;;;4.95;3.70;;;23.10;99.90;;;;;;5074274;28;20559;-48
2021/08/31 08:47:55;;;;;;;6.65;4.32;;;23.30;99.90;;;;;;5074506;28;20107;-49
2021/08/31 08:50:21;;;;;;;4.85;4.03;;;23.70;99.90;;;;;;5006635;28;20033;-49
2021/08/31 08:52:47;;;;;;;6.20;4.28;;;24.10;99.90;;;;;;5074433;28;20025;-49
2021/08/31 08:55:13;;;;;;;8.20;4.90;;;23.90;99.90;;;;;;5039258;28;20040;-49
2021/08/31 08:57:39;;;;;;;6.82;3.70;;;24.00;99.80;;;;;;5073987;28;20025;-49
2021/08/31 09:00:08;;;;;;;7.05;4.57;;;24.20;99.50;;;;;;5074010;28;20059;-49
2021/08/31 09:02:36;;;;;;;4.20;3.80;;;24.70;99.90;;;;;;4975109;28;20044;-49
2021/08/31 09:05:03;;;;;;;9.77;4.63;;;24.70;98.30;;;;;;5074033;28;20017;-49
2021/08/31 09:07:29;;;;;;;5.10;3.85;;;24.90;97.70;;;;;;5073963;28;20410;-49
2021/08/31 09:10:24;;;;;;;4.47;3.22;;;24.70;97.30;;;;;;5005627;28;20033;-49
2021/08/31 09:12:52;;;;;;;4.38;3.30;;;25.10;96.70;;;;;;4989464;28;20044;-49
2021/08/31 09:15:21;;;;;;;4.07;2.90;;;25.50;96.30;;;;;;5072133;28;20097;-49
2021/08/31 09:18:11;;;;;;;4.95;4.00;;;25.80;95.70;;;;;;5072601;28;20024;-49
2021/08/31 09:20:53;;;;;;;4.97;3.70;;;25.60;96.60;;;;;;5072526;28;20029;-49
2021/08/31 09:23:27;;;;;;;6.43;3.72;;;25.70;95.60;;;;;;5072212;28;20029;-49
2021/08/31 09:25:55;;;;;;;5.20;3.05;;;25.60;95.40;;;;;;5072283;28;20091;-50
2021/08/31 09:28:33;;;;;;;3.45;3.15;;;25.50;93.70;;;;;;5072435;28;20052;-50
2021/08/31 09:31:03;;;;;;;5.43;2.92;;;25.50;94.40;;;;;;5072471;28;20043;-49
2021/08/31 09:33:32;;;;;;;3.00;2.67;;;25.80;93.20;;;;;;5072298;28;20032;-49
2021/08/31 09:36:11;;;;;;;3.85;2.67;;;25.60;93.40;;;;;;5072176;28;20029;-49
2021/08/31 09:38:56;;;;;;;3.25;2.92;;;25.70;93.20;;;;;;5072396;28;20059;-49
2021/08/31 09:41:35;;;;;;;3.00;2.42;;;26.10;92.90;;;;;;5072201;28;20021;-49
2021/08/31 09:44:06;;;;;;;3.50;2.22;;;26.10;92.10;;;;;;5072317;28;20534;-49
2021/08/31 09:46:48;;;;;;;4.28;2.40;;;25.50;91.60;;;;;;5020215;28;20044;-49
2021/08/31 09:49:22;;;;;;;3.55;2.10;;;25.90;91.80;;;;;;5071920;28;20028;-49
2021/08/31 09:52:15;;;;;;;3.50;2.30;;;26.20;90.60;;;;;;5036548;28;20064;-49
2021/08/31 09:54:49;;;;;;;3.05;2.20;;;25.80;88.50;;;;;;5072190;28;20029;-50
2021/08/31 09:57:27;;;;;;;2.05;1.83;;;26.10;90.10;;;;;;5072052;28;20090;-50
2021/08/31 09:59:53;;;;;;;2.65;1.73;;;26.10;88.30;;;;;;5036561;28;20037;-49
2021/08/31 10:02:19;;;;;;;2.95;2.38;;;26.30;87.40;;;;;;5071888;28;20112;-49
2021/08/31 10:04:45;;;;;;;3.83;2.10;;;26.40;90.00;;;;;;5036788;28;20119;-49
2021/08/31 10:07:13;;;;;;;2.38;1.95;;;26.60;87.50;;;;;;5072060;28;20384;-50
2021/08/31 10:09:40;;;;;;;5.97;2.60;;;26.80;84.30;;;;;;5072095;28;20372;-49
2021/08/31 10:12:10;;;;;;;3.88;2.10;;;;;;;;;;5071943;28;20411;-50
2021/08/31 10:14:42;;;;;;;2.88;1.95;;;27.60;84.20;;;;;;5072011;28;20041;-50
2021/08/31 10:17:09;;;;;;;3.10;2.20;;;;;;;;;;5071849;28;20032;-50
2021/08/31 10:19:36;;;;;;;3.45;2.08;;;;;;;;;;5036484;28;20396;-49
2021/08/31 10:22:02;;;;;;;9.38;8.45;;;;;;;;;;5071930;28;20017;-49
2021/08/31 10:24:28;;;;;;;2.75;2.15;;;28.40;82.50;;;;;;5071997;28;20052;-49
2021/08/31 10:26:54;;;;;;;2.78;2.10;;;28.50;78.70;;;;;;5075863;28;20075;-49
2021/08/31 10:29:19;;;;;;;6.40;1.90;;;28.90;80.60;;;;;;5075583;28;20111;-50
2021/08/31 10:31:47;;;;;;;2.83;2.17;;;27.90;81.40;;;;;;5075656;28;20468;-49
2021/08/31 10:34:31;;;;;;;3.08;2.00;;;27.70;79.20;;;;;;5075582;28;20043;-50
2021/08/31 10:37:15;;;;;;;4.82;2.13;;;27.70;78.90;;;;;;5075598;28;20040;-50
2021/08/31 10:39:48;;;;;;;4.22;2.25;;;27.50;78.70;;;;;;5040186;28;20041;-50
2021/08/31 10:42:26;;;;;;;5.07;2.25;;;26.80;78.90;;;;;;5039537;28;20120;-51
2021/08/31 10:45:05;;;;;;;4.40;2.33;;;25.90;79.10;;;;;;5075488;28;20028;-50
2021/08/31 10:47:40;;;;;;;3.15;2.15;;;26.10;99.90;;;;;;5070794;28;20468;-49
2021/08/31 10:50:08;;;;;;;6.90;2.40;;;27.00;99.30;;;;;;5039826;28;20543;-49
2021/08/31 10:52:34;;;;;;;2.45;2.10;;;;;;;;;;5075231;28;20125;-49
2021/08/31 10:55:00;;;;;;;3.95;2.35;;;27.60;78.20;;;;;;5075193;28;20447;-50
2021/08/31 10:57:35;;;;;;;3.00;2.65;;;27.20;79.40;;;;;;5075232;28;20028;-50
2021/08/31 11:00:01;;;;;;;3.72;2.50;;;27.20;79.80;;;;;;5075204;28;20025;-50
2021/08/31 11:02:46;;;;;;;2.83;2.45;;;27.10;78.90;;;;;;5075104;28;20058;-50
2021/08/31 11:05:21;;;;;;;2.53;2.33;;;26.60;80.50;;;;;;5075145;28;20383;-50
2021/08/31 11:08:11;;;;;;;3.35;2.33;;;26.60;81.20;;;;;;5056377;28;20055;-49
2021/08/31 11:10:43;;;;;;;2.40;2.13;;;26.90;81.80;;;;;;5074922;28;20028;-50
2021/08/31 11:13:20;;;;;;;3.95;2.45;;;27.40;80.00;;;;;;5074826;28;20052;-50
2021/08/31 11:15:47;;;;;;;4.05;2.55;;;;;;;;;;5074854;28;20548;-49
2021/08/31 11:18:20;;;;;;;2.50;2.30;;;27.90;90.80;;;;;;5074895;28;20089;-50
2021/08/31 11:20:46;;;;;;;3.20;2.75;;;27.70;90.50;;;;;;5009008;28;20098;-50
2021/08/31 11:23:21;;;;;;;2.80;2.47;;;27.90;90.10;;;;;;5031618;28;20062;-50
2021/08/31 11:25:55;;;;;;;5.13;2.45;;;28.20;90.10;;;;;;5054454;28;20496;-50
2021/08/31 11:28:29;;;;;;;4.85;2.83;;;28.00;89.70;;;;;;5054619;28;20033;-50
2021/08/31 11:31:02;;;;;;;2.15;1.95;;;;;;;;;;5019418;28;20540;-50
2021/08/31 11:33:37;;;;;;;2.30;2.10;;;28.30;75.80;;;;;;5054048;28;20051;-49
2021/08/31 11:36:12;;;;;;;2.30;2.10;;;27.90;78.80;;;;;;5054174;28;20043;-50
2021/08/31 11:38:53;;;;;;;6.40;2.70;;;28.00;78.90;;;;;;5054384;28;20103;-50
2021/08/31 11:41:21;;;;;;;2.33;2.13;;;28.00;77.00;;;;;;5054456;28;20037;-50
2021/08/31 11:44:00;;;;;;;2.17;1.80;;;27.90;77.20;;;;;;5054438;28;20033;-49
2021/08/31 11:46:29;;;;;;;5.00;2.00;;;27.80;76.60;;;;;;5055097;28;20090;-49
2021/08/31 11:49:07;;;;;;;2.85;2.00;;;28.00;76.70;;;;;;5055376;28;20035;-50
2021/08/31 11:51:33;;;;;;;3.33;1.65;;;28.20;76.30;;;;;;5055348;28;20037;-50
2021/08/31 11:54:05;;;;;;;1.77;1.40;;;28.40;74.80;;;;;;4987826;28;20091;-49
2021/08/31 11:56:31;;;;;;;1.60;1.27;;;29.10;73.30;;;;;;5055191;28;20123;-50
2021/08/31 11:58:57;;;;;;;3.78;1.38;;;28.70;71.60;;;;;;5055336;28;20108;-49
2021/08/31 12:01:29;;;;;;;3.00;1.38;;;28.40;73.30;;;;;;5055353;28;20546;-50
2021/08/31 12:04:01;;;;;;;4.57;1.75;;;28.60;72.50;;;;;;5020404;28;20045;-50
2021/08/31 12:06:27;;;;;;;1.83;1.70;;;28.20;74.00;;;;;;5055290;28;20037;-50
2021/08/31 12:08:53;;;;;;;3.28;1.75;;;28.10;75.40;;;;;;5055240;28;20059;-49
2021/08/31 12:11:18;;;;;;;2.58;1.70;;;28.00;75.30;;;;;;5037337;28;20377;-49
2021/08/31 12:13:46;;;;;;;3.80;1.75;;;27.80;74.30;;;;;;5036638;28;20052;-50
2021/08/31 12:16:14;;;;;;;2.85;1.58;;;27.10;75.30;;;;;;5055012;28;20037;-50
2021/08/31 12:18:40;;;;;;;1.88;1.60;;;27.10;75.20;;;;;;5054846;28;20040;-49
2021/08/31 12:21:23;;;;;;;2.63;1.65;;;27.10;73.50;;;;;;5036928;28;20120;-49
2021/08/31 12:23:53;;;;;;;3.55;1.77;;;27.60;73.30;;;;;;5054496;28;20029;-50
2021/08/31 12:26:30;;;;;;;2.45;1.40;;;28.40;76.00;;;;;;5053394;28;20056;-50
2021/08/31 12:28:59;;;;;;;1.90;1.60;;;27.90;73.30;;;;;;5018307;28;20037;-50
2021/08/31 12:31:25;;;;;;;2.55;1.58;;;28.00;75.10;;;;;;5053360;28;20044;-51
2021/08/31 12:33:51;;;;;;;2.28;1.30;;;28.00;75.10;;;;;;5018140;28;20431;-50
2021/08/31 12:36:16;;;;;;;2.38;1.25;;;28.20;71.40;;;;;;5053446;28;20028;-50
2021/08/31 12:38:45;;;;;;;2.85;1.73;;;28.00;71.60;;;;;;5051374;28;20055;-50
2021/08/31 12:41:13;;;;;;;1.63;1.48;;;28.30;71.80;;;;;;5052850;28;20075;-50
2021/08/31 12:43:45;;;;;;;2.22;1.40;;;;;;;;;;5053174;28;20039;-50
2021/08/31 12:46:21;;;;;;;2.75;1.63;;;28.80;79.90;;;;;;5053275;28;20039;-50